ロングイェールビーン の空港の天気 - METARとTAF

スヴァールバル空港 ( ENSB / LYR ) - スヴァールバル諸島・ヤンマイエン島 ロングイェールビーン
飛行場実況気象(Metar)
観測時間10/28 16:50 CET (10/28 15:50 UTC)
風向・風速西南西 3m/s
視程10km以上
天気現象弱い雪
全天の4割程度の雲 雲底高度 910m
全天の8割程度の雲 雲底高度 1520m
気温-1℃
湿度80%
気圧988hPa
METARENSB 281550Z 25005KT 210V280 9999 -SN SCT030 BKN050 M01/M04 Q0988 RMK WIND 1400FT 33004KT
過去の天気等 Google飛行場航空写真 Wunderground天気予報

過去48時間のMETAR

飛行場予報(TAF)
発表時間: -
28日16時 CET ~ 28日22時 CET に一時的に
視程4000m
天気現象弱い雪
全天を覆う雲 鉛直視程 240m
28日15時 CET ~ 28日19時 CET に徐々に
風向・風速北北西 6m/s
TAF COR ENSB 2812/2912 25009KT 9999 -SN FEW010 BKN020
TEMPO 2815/2821 4000 -SN VV008
BECMG 2814/2818 33012KT